Lynradar: storm image Ingen tordenbyger registrert..



Vårt webkamera mer informasjon My webcam


Kamera på Foreneset mer informasjon webcam on foreneset


Nedbørsradar  rain snow radar


Besøk vår andre værside:

Alternativ webside

iphone versjon

Nettbrett versjon

Foreneset
verstasjon



Ikke nødvendig med spesiell oppmerksomhet.    Det er ingen advarsler

Nære METAR rapporter

     
ENZV - Stavanger
oppdatert: 21-07-2019 01:50
Nære Byger, For det meste skyet  
Nære Byger, For det meste skyet  
   Vind: Sør 2.6 m/s
Vind: Sør 2.6 m/s
Temperatur: 15°C
Duggpunkt: 15°C
Fuktighet: 100%
Barometer: 1007 hPa
Skyer: For det meste skyet
Sikt: 8 km
Skydetaljer: Delvis Skyet 152.4 m,
For det meste skyet 457.2 m
ENZV 202350Z 17005KT 8000 VCSH SCT005 BKN015 15/15 Q1007
ENHD - Haugesund
oppdatert: 21-07-2019 01:50
Overskyet  
Overskyet  
   Vind: SSØ 5.1 m/s
Vind: SSØ 5.1 m/s
Temperatur: 15°C
Duggpunkt: 14°C
Fuktighet: 94%
Barometer: 1006 hPa
Skyer: Overskyet
Sikt: 8 km
Skydetaljer: Overskyet 152.4 m
ENHD 202350Z AUTO 15010KT 8000 VV005 15/14 Q1006
ENBR - Bergen
oppdatert: 21-07-2019 01:50
Lett regn, For det meste skyet  
Lett regn, For det meste skyet  
   Vind: SØ 3.6 m/s
Vind: SØ 3.6 m/s
Temperatur: 15°C
Duggpunkt: 14°C
Fuktighet: 94%
Barometer: 1006 hPa
Skyer: For det meste skyet
Sikt: mer enn 10 km
Skydetaljer: Få Skyer 213.4 m,
Delvis Skyet 335.3 m,
For det meste skyet 457.2 m
ENBR 202350Z 14007KT 9999 -RA FEW007 SCT011 BKN015 15/14 Q1006 RMK WIND 1200FT 15013KT
ENCN - Kristiansand
oppdatert: 21-07-2019 01:50
Heavy Drizzle, Overskyet  
Heavy Drizzle, Overskyet  
   Vind: Sør 1.5 m/s
Vind: Sør 1.5 m/s
Temperatur: 16°C
Duggpunkt: 16°C
Fuktighet: 100%
Barometer: 1008 hPa
Skyer: Overskyet
Sikt: 2 km
Skydetaljer: Overskyet 30.5 m
ENCN 202350Z AUTO 19003KT 160V230 1900 +DZ VV001 16/16 Q1008
ENGM - Oslo
oppdatert: 21-07-2019 01:50
Klart  
Klart  
   Vind: Stille
Vind: Stille
Temperatur: 14°C
Duggpunkt: 12°C
Fuktighet: 88%
Barometer: 1010 hPa
Sikt: mer enn 10 km
Skydetaljer: Klart
ENGM 202350Z 00000KT CAVOK 14/12 Q1010
ENVA - Trondheim
oppdatert: 21-07-2019 01:50
Klart  
Klart  
   Vind: SØ 3.6 m/s
Vind: SØ 3.6 m/s
Temperatur: 20°C
Duggpunkt: 10°C
Fuktighet: 53%
Barometer: 1009 hPa
Sikt: mer enn 10 km
Skydetaljer: Klart
ENVA 202350Z 14007KT 110V220 CAVOK 20/10 Q1009 RMK WIND 670FT 16017G28KT
    

Script utviklet av  Saratoga-weather.org Tilrettelagt for malen av  Weerstation Leuven

Du finner vår vær info også på:

UK Metoffice

European Weather Network

WeatherCloud

Weather Underground

Utstyr vi bruker:

Værstsjon
Davis VP2

Værprogram
Weather Display

Davis VP2

Weather Display